Time;durP1;ratioP1;P1;durP2;ratioP2;P2;SDS_P1;SDS_P2;PMS_P1;PMS_P2;Temp;Humidity;BMP_temperature;BMP_pressure;BME280_temperature;BME280_humidity;BME280_pressure;Samples;Min_cycle;Max_cycle;Signal;HPM_P1;HPM_P2
2021/03/02 00:01:11;;;;;;;78.42;35.30;;;;;;;2.44;83.76;102026.05;1737145;78;25708;-62
2021/03/02 00:03:39;;;;;;;80.10;34.33;;;;;;;2.43;83.78;102023.91;1709702;83;25661;-63
2021/03/02 00:06:07;;;;;;;84.05;36.35;;;;;;;2.43;83.74;102027.08;1709420;83;25849;-64
2021/03/02 00:11:09;;;;;;;82.82;35.98;;;;;;;2.43;83.73;102027.91;1718001;80;27162;-65
2021/03/02 00:13:36;;;;;;;78.30;35.08;;;;;;;2.45;83.71;102026.87;1705002;84;27107;-63
2021/03/02 00:16:06;;;;;;;83.92;36.48;;;;;;;2.44;83.71;102020.72;1703118;84;25661;-63
2021/03/02 00:18:44;;;;;;;81.90;37.23;;;;;;;2.44;83.64;102022.05;1688649;84;25767;-65
2021/03/02 00:21:29;;;;;;;82.27;35.23;;;;;;;2.46;83.66;102017.83;1702068;84;25587;-65
2021/03/02 00:24:01;;;;;;;87.45;35.68;;;;;;;2.47;83.68;102018.96;1702367;83;25744;-60
2021/03/02 00:26:32;;;;;;;87.12;35.13;;;;;;;2.47;83.60;102006.09;1702195;83;25795;-65
2021/03/02 00:29:04;;;;;;;82.30;37.40;;;;;;;2.48;83.58;102000.55;1702183;83;25606;-62
2021/03/02 00:31:34;;;;;;;76.15;33.78;;;;;;;2.47;83.51;102005.61;1702230;84;26312;-63
2021/03/02 00:34:01;;;;;;;80.62;35.33;;;;;;;2.48;83.62;102000.55;1702278;84;25789;-63
2021/03/02 00:36:28;;;;;;;82.27;34.78;;;;;;;2.47;83.61;101996.25;1701898;84;25891;-66
2021/03/02 00:38:55;;;;;;;75.67;34.78;;;;;;;2.47;83.47;101994.08;1702341;84;26662;-64
2021/03/02 00:41:23;;;;;;;70.47;32.95;;;;;;;2.49;83.48;101989.37;1701598;83;25747;-66
2021/03/02 00:43:53;;;;;;;74.32;33.35;;;;;;;2.49;83.45;101985.36;1702313;83;25666;-65
2021/03/02 00:46:20;;;;;;;74.10;33.53;;;;;;;2.48;83.40;101983.19;1702179;83;25798;-66
2021/03/02 00:48:47;;;;;;;68.25;33.13;;;;;;;2.46;83.25;101991.12;1702471;83;25672;-66
2021/03/02 00:51:14;;;;;;;68.78;33.08;;;;;;;2.46;83.33;101987.12;1702381;84;26767;-66
2021/03/02 00:53:41;;;;;;;67.53;30.40;;;;;;;2.44;83.23;101998.01;1702119;84;25729;-64
2021/03/02 00:56:08;;;;;;;66.53;29.30;;;;;;;2.45;83.20;101994.81;1702363;83;25684;-64
2021/03/02 00:58:35;;;;;;;68.05;29.70;;;;;;;2.42;83.09;101992.06;1703181;84;25690;-63
2021/03/02 01:01:02;;;;;;;63.73;30.23;;;;;;;2.41;83.12;101977.88;1703449;84;25721;-63
2021/03/02 01:03:29;;;;;;;66.57;30.77;;;;;;;2.41;83.09;101987.22;1703269;84;26742;-65
2021/03/02 01:05:56;;;;;;;66.15;29.67;;;;;;;2.41;83.11;101977.06;1703221;84;26288;-66
2021/03/02 01:08:24;;;;;;;63.75;29.32;;;;;;;2.38;83.04;101981.48;1702495;84;25698;-67
2021/03/02 01:10:57;;;;;;;62.03;29.07;;;;;;;2.37;83.04;101982.02;1703102;84;25607;-67
2021/03/02 01:13:24;;;;;;;61.58;30.23;;;;;;;2.37;83.11;101975.86;1723888;82;25692;-66
2021/03/02 01:15:51;;;;;;;66.70;30.48;;;;;;;2.36;83.06;101971.54;1729918;82;25790;-65
2021/03/02 01:18:17;;;;;;;66.45;29.35;;;;;;;2.35;83.14;101967.22;1729903;82;25836;-66
2021/03/02 01:20:44;;;;;;;65.30;30.35;;;;;;;2.33;83.08;101967.42;1729997;82;25677;-64
2021/03/02 01:23:11;;;;;;;63.85;29.45;;;;;;;2.33;83.12;101965.28;1729726;82;25830;-67
2021/03/02 01:25:38;;;;;;;70.97;32.20;;;;;;;2.34;83.13;101962.92;1729558;82;25681;-65
2021/03/02 01:28:06;;;;;;;71.70;31.73;;;;;;;2.36;83.17;101961.66;1729996;82;25724;-67
2021/03/02 01:30:33;;;;;;;68.05;30.08;;;;;;;2.35;83.17;101960.05;1729667;82;25698;-66
2021/03/02 01:33:01;;;;;;;67.87;31.65;;;;;;;2.33;83.12;101961.28;1729826;82;25516;-66
2021/03/02 01:35:28;;;;;;;65.37;29.55;;;;;;;2.32;83.17;101960.47;1729888;82;25694;-66
2021/03/02 01:37:55;;;;;;;64.40;29.15;;;;;;;2.32;83.17;101952.98;1730072;82;25754;-65
2021/03/02 01:40:23;;;;;;;63.55;27.90;;;;;;;2.29;83.13;101960.89;1729890;82;26384;-64
2021/03/02 01:42:50;;;;;;;66.22;29.50;;;;;;;2.27;83.14;101949.60;1729856;82;25790;-66
2021/03/02 01:45:19;;;;;;;63.25;29.32;;;;;;;2.24;83.36;101941.48;1729917;82;25690;-65
2021/03/02 01:47:50;;;;;;;66.80;29.35;;;;;;;2.22;83.27;101937.41;1730055;82;25674;-68
2021/03/02 01:50:18;;;;;;;59.77;28.77;;;;;;;2.19;83.28;101937.83;1729155;82;25763;-66
2021/03/02 01:52:45;;;;;;;59.50;26.68;;;;;;;2.17;83.37;101934.03;1729271;82;25871;-62
2021/03/02 01:55:17;;;;;;;60.03;28.60;;;;;;;2.16;83.62;101932.41;1729572;82;25760;-64
2021/03/02 01:57:45;;;;;;;59.88;27.90;;;;;;;2.16;83.69;101921.73;1729871;82;25705;-65
2021/03/02 02:00:31;;;;;;;62.83;27.62;;;;;;;2.15;83.70;101926.76;1729817;82;25735;-66
2021/03/02 02:03:25;;;;;;;64.75;29.87;;;;;;;2.15;83.85;101924.09;1729458;82;25673;-67
2021/03/02 02:06:09;;;;;;;57.95;27.30;;;;;;;2.12;83.94;101917.83;1729242;82;25794;-64
2021/03/02 02:08:53;;;;;;;65.32;28.62;;;;;;;2.11;83.96;101908.70;1729695;82;25685;-66
2021/03/02 02:11:34;;;;;;;65.10;27.80;;;;;;;2.10;83.97;101905.22;1728560;82;25633;-66
2021/03/02 02:14:21;;;;;;;66.42;28.65;;;;;;;2.11;84.02;101908.20;1729586;82;26340;-65
2021/03/02 02:16:52;;;;;;;68.30;28.67;;;;;;;2.12;84.38;101891.66;1673711;82;25752;-64
2021/03/02 02:19:42;;;;;;;68.87;29.55;;;;;;;2.13;84.19;101899.95;1729929;82;26590;-64
2021/03/02 02:22:40;;;;;;;70.95;31.68;;;;;;;2.12;84.37;101902.34;1729913;82;26309;-65
2021/03/02 02:25:24;;;;;;;67.27;28.35;;;;;;;2.13;84.40;101905.30;1729290;82;25699;-65
2021/03/02 02:27:55;;;;;;;67.45;30.15;;;;;;;2.14;84.41;101913.09;1729622;82;25742;-63
2021/03/02 02:30:23;;;;;;;64.40;28.10;;;;;;;2.15;84.53;101909.41;1730072;82;25621;-65
2021/03/02 02:32:52;;;;;;;66.37;28.10;;;;;;;2.17;84.62;101914.01;1730024;82;25919;-66
2021/03/02 02:35:23;;;;;;;74.92;31.60;;;;;;;2.18;84.78;101908.14;1729921;82;25669;-66
2021/03/02 02:37:51;;;;;;;66.70;29.65;;;;;;;2.17;84.76;101908.67;1730025;82;25685;-64
2021/03/02 02:40:21;;;;;;;74.30;31.20;;;;;;;2.21;84.79;101914.39;1729817;82;25687;-65
2021/03/02 02:42:50;;;;;;;;;;;;;;;2.19;85.14;101910.60;1732603;82;25721;-64
2021/03/02 02:45:18;;;;;;;73.05;30.40;;;;;;;2.19;85.12;101914.61;1701019;84;25745;-66
2021/03/02 02:47:50;;;;;;;74.95;31.12;;;;;;;2.19;85.25;101909.80;1700825;84;26352;-65
2021/03/02 02:50:18;;;;;;;76.87;31.27;;;;;;;2.19;85.38;101913.80;1676547;84;25838;-65
2021/03/02 02:52:46;;;;;;;83.40;33.92;;;;;;;2.21;85.21;101921.07;1700687;84;25749;-65
2021/03/02 02:55:16;;;;;;;79.15;31.97;;;;;;;2.23;85.52;101913.66;1700644;84;25805;-66
2021/03/02 02:57:46;;;;;;;;;;;;;;;2.23;85.45;101915.00;1703062;84;25742;-65
2021/03/02 03:00:17;;;;;;;82.57;31.35;;;;;;;2.24;85.50;101913.45;1700616;84;25724;-64
2021/03/02 03:02:48;;;;;;;85.00;33.83;;;;;;;2.24;85.65;101908.11;1675211;84;25736;-66
2021/03/02 03:05:19;;;;;;;77.90;32.45;;;;;;;2.24;85.89;101909.97;1719478;83;25657;-64
2021/03/02 03:08:07;;;;;;;82.22;34.23;;;;;;;2.26;85.68;101911.09;1709506;83;25670;-66
2021/03/02 03:10:36;;;;;;;85.00;32.60;;;;;;;2.26;85.86;101904.42;1709343;83;27340;-63
2021/03/02 03:13:07;;;;;;;78.52;34.98;;;;;;;2.27;85.73;101902.06;1707555;83;31218;-66
2021/03/02 03:15:35;;;;;;;92.08;38.17;;;;;;;2.30;85.76;101904.28;1750892;81;25683;-64
2021/03/02 03:18:09;;;;;;;81.05;34.20;;;;;;;2.30;86.05;101902.95;1751202;81;25614;-65
2021/03/02 03:20:37;;;;;;;81.50;34.67;;;;;;;2.30;85.83;101907.80;1752147;81;25684;-62
2021/03/02 03:23:06;;;;;;;89.03;34.27;;;;;;;2.30;86.05;101907.80;1751881;81;26753;-65
2021/03/02 03:25:34;;;;;;;91.35;35.80;;;;;;;2.31;86.06;101916.09;1751090;81;25678;-65
2021/03/02 03:28:05;;;;;;;83.87;36.42;;;;;;;2.30;86.12;101914.47;1751118;81;25792;-64
2021/03/02 03:30:35;;;;;;;84.87;34.33;;;;;;;2.31;86.05;101917.42;1750499;81;25818;-63
2021/03/02 03:33:11;;;;;;;96.72;35.88;;;;;;;2.33;86.08;101909.20;1751080;81;25655;-63
2021/03/02 03:35:41;;;;;;;83.85;34.48;;;;;;;2.32;86.21;101897.71;1750947;81;25706;-66
2021/03/02 03:38:09;;;;;;;88.67;34.20;;;;;;;2.32;86.30;101896.91;1750904;81;26203;-65
2021/03/02 03:40:36;;;;;;;94.65;36.73;;;;;;;2.32;86.36;101898.23;1751118;81;25804;-64
2021/03/02 03:43:03;;;;;;;90.72;37.55;;;;;;;2.30;86.32;101899.78;1750933;81;25641;-63
2021/03/02 03:45:31;;;;;;;88.75;37.53;;;;;;;2.32;86.35;101910.25;1750940;81;25617;-67
2021/03/02 03:47:58;;;;;;;91.97;39.08;;;;;;;2.32;86.33;101911.06;1750966;81;25918;-67
2021/03/02 03:50:25;;;;;;;92.15;36.65;;;;;;;2.34;86.48;101910.33;1750788;81;25538;-66
2021/03/02 03:52:58;;;;;;;93.15;37.33;;;;;;;2.34;86.34;101908.19;1751041;81;25719;-66
2021/03/02 03:55:33;;;;;;;97.67;36.63;;;;;;;2.35;86.83;101897.29;1750793;81;25664;-67
2021/03/02 03:58:01;;;;;;;83.82;35.78;;;;;;;2.35;86.60;101888.44;1751050;81;25667;-67
2021/03/02 04:00:30;;;;;;;85.53;35.23;;;;;;;2.35;86.50;101886.61;1750759;81;25823;-65
2021/03/02 04:02:58;;;;;;;92.67;38.15;;;;;;;2.35;86.62;101883.94;1750504;81;25854;-65
2021/03/02 04:05:26;;;;;;;90.57;38.00;;;;;;;2.37;86.60;101881.05;1750317;81;25769;-65
2021/03/02 04:07:54;;;;;;;87.60;36.42;;;;;;;2.36;87.09;101876.20;1750817;81;25744;-65
2021/03/02 04:10:21;;;;;;;91.95;38.00;;;;;;;2.36;87.17;101874.06;1750866;81;25758;-65
2021/03/02 04:12:48;;;;;;;89.85;36.10;;;;;;;2.35;87.01;101865.73;1751006;81;25720;-66
2021/03/02 04:15:17;;;;;;;95.38;36.38;;;;;;;2.33;87.10;101870.48;1752499;81;25681;-66
2021/03/02 04:17:56;;;;;;;86.42;36.53;;;;;;;2.33;86.93;101860.61;1752597;81;25772;-63
2021/03/02 04:20:23;;;;;;;87.30;36.00;;;;;;;2.35;86.96;101853.72;1753045;81;25709;-65
2021/03/02 04:22:50;;;;;;;94.70;39.10;;;;;;;2.36;87.23;101860.70;1752986;81;25613;-63
2021/03/02 04:25:17;;;;;;;88.62;36.28;;;;;;;2.34;87.41;101859.59;1752854;81;25820;-62
2021/03/02 04:27:44;;;;;;;94.52;38.70;;;;;;;2.34;87.29;101856.91;1753044;81;25849;-63
2021/03/02 04:30:13;;;;;;;95.30;39.00;;;;;;;2.36;87.41;101854.84;1752874;81;25666;-65
2021/03/02 04:32:40;;;;;;;102.63;37.00;;;;;;;2.37;87.14;101856.49;1753414;81;25677;-63
2021/03/02 04:35:09;;;;;;;109.92;41.18;;;;;;;2.40;87.18;101853.89;1752992;81;25690;-66
2021/03/02 04:37:39;;;;;;;106.97;40.92;;;;;;;2.41;87.37;101847.53;1753285;81;26806;-64
2021/03/02 04:40:09;;;;;;;88.45;38.53;;;;;;;2.42;87.32;101852.66;1752931;81;25683;-66
2021/03/02 04:42:36;;;;;;;90.12;37.38;;;;;;;2.43;87.27;101856.98;1753043;81;26272;-63
2021/03/02 04:45:07;;;;;;;100.12;38.23;;;;;;;2.44;87.49;101856.45;1752686;81;25649;-62
2021/03/02 04:47:36;;;;;;;92.92;37.88;;;;;;;2.45;87.23;101855.92;1752857;81;25653;-63
2021/03/02 04:50:04;;;;;;;102.38;38.98;;;;;;;2.46;87.20;101859.72;1753000;81;26157;-62
2021/03/02 04:52:31;;;;;;;98.95;40.10;;;;;;;2.49;87.35;101853.95;1752655;81;25699;-67
2021/03/02 04:54:58;;;;;;;96.12;39.25;;;;;;;2.49;87.26;101845.94;1753103;81;25769;-66
2021/03/02 04:57:25;;;;;;;100.00;39.98;;;;;;;2.49;87.41;101848.61;1752859;81;25785;-64
2021/03/02 04:59:52;;;;;;;93.90;38.85;;;;;;;2.48;87.33;101830.94;1753127;81;25653;-64
2021/03/02 05:02:19;;;;;;;100.55;39.20;;;;;;;2.50;87.42;101836.06;1752797;81;25709;-65
2021/03/02 05:04:46;;;;;;;91.92;38.58;;;;;;;2.49;87.67;101827.23;1752925;81;25638;-66
2021/03/02 05:07:13;;;;;;;99.30;40.05;;;;;;;2.50;87.44;101826.19;1752953;81;25688;-65
2021/03/02 05:09:41;;;;;;;94.40;40.52;;;;;;;2.51;87.95;101817.67;1752899;81;26241;-67
2021/03/02 05:12:08;;;;;;;98.20;39.30;;;;;;;2.49;87.92;101826.43;1753061;81;25625;-65
2021/03/02 05:14:36;;;;;;;96.75;42.08;;;;;;;2.49;87.75;101826.43;1752289;81;26021;-65
2021/03/02 05:17:03;;;;;;;92.22;39.58;;;;;;;2.51;87.56;101827.02;1752472;81;25777;-63
2021/03/02 05:19:31;;;;;;;92.62;38.80;;;;;;;2.52;87.72;101825.47;1752954;81;25680;-64
2021/03/02 05:21:59;;;;;;;88.62;38.28;;;;;;;2.52;87.62;101822.80;1753004;81;25731;-65
2021/03/02 05:24:28;;;;;;;94.50;39.08;;;;;;;2.54;87.64;101823.92;1752924;81;25744;-64
2021/03/02 05:26:55;;;;;;;92.47;38.35;;;;;;;2.55;87.59;101819.67;1752965;81;25723;-65
2021/03/02 05:29:22;;;;;;;90.47;39.40;;;;;;;2.57;87.91;101816.78;1752825;81;25659;-66
2021/03/02 05:31:48;;;;;;;92.82;40.05;;;;;;;2.58;87.66;101811.75;1753016;81;25816;-66
2021/03/02 05:34:15;;;;;;;96.72;38.67;;;;;;;2.59;87.79;101817.41;1752834;81;25674;-65
2021/03/02 05:36:42;;;;;;;84.37;37.67;;;;;;;2.60;87.77;101807.81;1753008;81;25635;-63
2021/03/02 05:39:11;;;;;;;99.52;37.88;;;;;;;2.61;87.79;101816.14;1752990;81;25786;-64
2021/03/02 05:41:42;;;;;;;88.72;38.92;;;;;;;2.61;88.22;101814.80;1753070;81;25678;-66
2021/03/02 05:44:13;;;;;;;86.82;37.38;;;;;;;2.64;88.01;101814.06;1752915;81;25640;-63
2021/03/02 05:46:42;;;;;;;98.67;40.35;;;;;;;2.65;87.76;101816.52;1752813;81;26343;-66
2021/03/02 05:49:11;;;;;;;80.72;35.33;;;;;;;2.67;87.81;101807.76;1753344;81;25653;-67
2021/03/02 05:51:40;;;;;;;90.03;38.73;;;;;;;2.69;87.83;101816.40;1753415;81;26849;-64
2021/03/02 05:54:10;;;;;;;86.70;38.25;;;;;;;2.72;87.90;101815.12;1753135;81;26310;-64
2021/03/02 05:56:38;;;;;;;83.52;36.65;;;;;;;2.73;87.62;101816.25;1753126;81;25644;-65
2021/03/02 05:59:06;;;;;;;83.40;36.17;;;;;;;2.74;87.62;101821.06;1753092;81;25685;-64
2021/03/02 06:01:33;;;;;;;87.67;39.20;;;;;;;2.74;87.65;101815.22;1753120;81;25622;-65
2021/03/02 06:04:00;;;;;;;88.27;36.40;;;;;;;2.76;87.66;101823.83;1753163;81;26313;-66
2021/03/02 06:06:28;;;;;;;81.97;35.28;;;;;;;2.77;87.61;101825.98;1752972;81;25660;-66
2021/03/02 06:08:55;;;;;;;92.53;38.23;;;;;;;2.78;87.53;101824.95;1753041;81;25664;-63
2021/03/02 06:11:32;;;;;;;78.42;35.43;;;;;;;2.79;87.42;101831.91;1752920;81;25751;-63
2021/03/02 06:14:25;;;;;;;86.85;38.65;;;;;;;2.84;87.43;101828.06;1755812;81;25620;-66
2021/03/02 06:16:52;;;;;;;84.62;36.55;;;;;;;2.83;87.37;101830.45;1763263;81;25830;-64
2021/03/02 06:19:46;;;;;;;80.05;35.38;;;;;;;2.86;87.44;101825.17;1763457;81;26337;-64
2021/03/02 06:22:37;;;;;;;79.75;35.13;;;;;;;2.87;87.21;101820.14;1763378;81;25609;-64
2021/03/02 06:25:09;;;;;;;90.85;36.20;;;;;;;2.87;87.07;101828.97;1763500;81;25879;-63
2021/03/02 06:27:41;;;;;;;77.45;35.40;;;;;;;2.87;87.11;101822.28;1760335;81;25809;-63
2021/03/02 06:30:16;;;;;;;85.60;38.15;;;;;;;2.87;87.28;101819.61;1762401;81;27059;-65
2021/03/02 06:32:52;;;;;;;81.47;34.33;;;;;;;2.88;87.26;101813.24;1763509;81;25656;-62
2021/03/02 06:35:34;;;;;;;77.35;34.08;;;;;;;2.89;87.00;101823.41;1763577;81;25672;-61
2021/03/02 06:38:03;;;;;;;86.20;35.48;;;;;;;2.89;87.03;101820.20;1762905;81;25707;-64
2021/03/02 06:40:41;;;;;;;89.15;38.17;;;;;;;2.93;87.00;101817.94;1763005;81;25825;-62
2021/03/02 06:43:29;;;;;;;75.28;34.40;;;;;;;2.97;87.04;101811.10;1763469;81;25713;-65
2021/03/02 06:45:56;;;;;;;83.22;36.05;;;;;;;2.98;87.01;101803.39;1763391;81;25664;-63
2021/03/02 06:48:24;;;;;;;78.45;35.60;;;;;;;2.97;86.80;101809.77;1763247;81;25696;-65
2021/03/02 06:50:52;;;;;;;89.32;35.38;;;;;;;2.98;86.83;101803.39;1764400;81;25499;-63
2021/03/02 06:53:20;;;;;;;77.67;34.43;;;;;;;2.98;86.81;101803.39;1763962;81;25677;-64
2021/03/02 06:55:47;;;;;;;75.37;33.78;;;;;;;2.99;86.71;101800.47;1763516;81;28127;-66
2021/03/02 06:58:24;;;;;;;84.50;35.05;;;;;;;3.02;86.73;101801.09;1763513;81;25617;-64
2021/03/02 07:00:55;;;;;;;86.80;37.28;;;;;;;3.08;86.71;101794.34;1763486;81;25685;-63
2021/03/02 07:03:26;;;;;;;80.25;33.10;;;;;;;3.12;86.63;101785.35;1762905;81;25706;-64
2021/03/02 07:05:55;;;;;;;81.40;34.27;;;;;;;3.18;86.58;101791.97;1762648;81;25765;-65
2021/03/02 07:08:22;;;;;;;78.57;34.60;;;;;;;3.23;86.39;101777.91;1765793;81;25948;-66
2021/03/02 07:10:50;;;;;;;78.60;33.70;;;;;;;3.27;86.22;101787.13;1767524;81;25798;-64
2021/03/02 07:13:19;;;;;;;83.15;35.17;;;;;;;3.29;86.05;101784.23;1767733;81;25749;-65
2021/03/02 07:15:50;;;;;;;74.80;33.15;;;;;;;3.35;85.99;101782.83;1770402;80;25782;-65
2021/03/02 07:18:24;;;;;;;70.95;33.23;;;;;;;3.38;85.90;101782.88;1770672;80;25768;-64
2021/03/02 07:20:53;;;;;;;69.20;33.55;;;;;;;3.43;85.78;101774.20;1770658;80;26734;-64
2021/03/02 07:23:24;;;;;;;72.20;34.25;;;;;;;3.53;85.73;101775.28;1770867;80;25854;-62
2021/03/02 07:25:55;;;;;;;81.02;33.83;;;;;;;3.59;85.33;101779.44;1770910;80;25692;-62
2021/03/02 07:28:30;;;;;;;73.70;33.53;;;;;;;3.64;85.13;101799.66;1744927;80;25672;-62
2021/03/02 07:30:57;;;;;;;73.67;34.00;;;;;;;3.71;85.17;101797.20;1770915;80;25685;-65
2021/03/02 07:33:24;;;;;;;78.17;34.35;;;;;;;3.81;84.90;101806.00;1770704;80;25800;-65
2021/03/02 07:35:59;;;;;;;75.05;32.78;;;;;;;3.86;84.64;101805.33;1770757;80;25700;-62
2021/03/02 07:38:26;;;;;;;73.90;32.85;;;;;;;3.96;84.63;101816.31;1770867;80;25704;-63
2021/03/02 07:40:56;;;;;;;75.90;32.42;;;;;;;4.02;83.94;101804.70;1770819;80;25715;-62
2021/03/02 07:43:36;;;;;;;74.82;33.53;;;;;;;4.03;83.24;101800.97;1770351;80;25612;-64
2021/03/02 07:46:22;;;;;;;;;;;;;;;4.09;83.61;101809.97;1773076;80;25783;-63
2021/03/02 07:48:49;;;;;;;77.45;33.33;;;;;;;4.19;83.09;101801.36;1770654;80;25685;-61
2021/03/02 07:51:20;;;;;;;74.37;33.95;;;;;;;4.21;83.14;101800.09;1770696;80;25636;-62
2021/03/02 07:53:49;;;;;;;79.37;35.60;;;;;;;4.27;82.69;101788.48;1770796;80;26433;-62
2021/03/02 07:56:22;;;;;;;80.65;34.35;;;;;;;4.32;82.16;101795.80;1770993;80;25714;-62
2021/03/02 07:59:14;;;;;;;75.12;33.78;;;;;;;4.42;82.34;101794.71;1770351;80;25727;-61
2021/03/02 08:01:42;;;;;;;85.00;35.75;;;;;;;4.51;82.35;101799.20;1770747;80;25746;-62
2021/03/02 08:04:17;;;;;;;79.67;33.28;;;;;;;4.61;82.41;101793.28;1733941;80;25625;-64
2021/03/02 08:06:52;;;;;;;80.45;33.65;;;;;;;4.62;81.99;101801.09;1720376;83;25937;-63
2021/03/02 08:09:26;;;;;;;72.72;34.00;;;;;;;4.72;81.28;101801.06;1721018;82;25670;-60
2021/03/02 08:11:55;;;;;;;76.28;32.58;;;;;;;4.71;80.73;101799.41;1721334;83;25725;-63
2021/03/02 08:14:28;;;;;;;81.55;35.10;;;;;;;4.74;81.10;101802.44;1719982;82;25697;-62
2021/03/02 08:17:06;;;;;;;84.87;33.88;;;;;;;4.94;80.60;101806.63;1712668;83;25635;-62
2021/03/02 08:19:47;;;;;;;80.83;35.48;;;;;;;5.06;80.56;101810.14;1713138;83;26088;-63
2021/03/02 08:22:23;;;;;;;;;;;;;;;5.12;80.62;101817.23;1715643;83;25939;-63
2021/03/02 08:25:04;;;;;;;76.33;33.50;;;;;;;5.29;81.27;101824.56;1713381;83;26425;-62
2021/03/02 08:27:50;;;;;;;81.22;36.45;;;;;;;5.40;81.03;101819.72;1712828;83;25662;-64
2021/03/02 08:30:22;;;;;;;75.65;35.65;;;;;;;5.56;78.25;101830.23;1713103;83;25760;-64
2021/03/02 08:32:51;;;;;;;78.25;33.78;;;;;;;5.51;78.49;101828.78;1712709;83;25770;-64
2021/03/02 08:35:22;;;;;;;80.92;35.90;;;;;;;5.50;77.71;101820.43;1713437;83;26029;-63
2021/03/02 08:37:56;;;;;;;81.65;36.33;;;;;;;5.48;78.55;101826.03;1713288;83;25792;-64
2021/03/02 08:40:34;;;;;;;82.67;38.20;;;;;;;5.61;78.45;101840.53;1713002;83;25674;-63
2021/03/02 08:43:15;;;;;;;77.90;34.38;;;;;;;5.73;79.24;101839.70;1710719;83;25909;-63
2021/03/02 08:45:52;;;;;;;79.62;35.75;;;;;;;5.85;79.10;101847.72;1712828;83;25700;-63
2021/03/02 08:48:29;;;;;;;73.97;35.92;;;;;;;5.90;78.90;101849.16;1712999;83;25703;-64
2021/03/02 08:51:05;;;;;;;77.37;35.83;;;;;;;5.95;78.32;101846.56;1712867;83;26939;-63
2021/03/02 08:53:45;;;;;;;80.40;37.30;;;;;;;5.94;77.80;101841.73;1712868;83;25687;-64
2021/03/02 08:56:25;;;;;;;83.12;37.00;;;;;;;5.96;77.85;101842.33;1713201;83;25751;-63
2021/03/02 08:59:07;;;;;;;81.90;37.03;;;;;;;6.01;77.86;101842.96;1712998;83;25747;-63
2021/03/02 09:01:37;;;;;;;89.85;36.35;;;;;;;6.08;76.45;101840.94;1712890;83;26349;-63
2021/03/02 09:04:19;;;;;;;80.40;36.28;;;;;;;6.29;77.30;101842.65;1713195;83;25725;-62
2021/03/02 09:06:48;;;;;;;75.42;35.35;;;;;;;6.65;77.03;101846.73;1713000;83;25734;-62
2021/03/02 09:09:20;;;;;;;79.30;36.58;;;;;;;6.68;75.47;101838.19;1713297;83;26060;-64
2021/03/02 09:11:59;;;;;;;77.90;37.05;;;;;;;6.68;76.11;101836.04;1713095;83;25682;-64
2021/03/02 09:14:30;;;;;;;77.70;37.05;;;;;;;6.85;74.73;101844.09;1713005;82;25825;-64
2021/03/02 09:17:04;;;;;;;78.75;37.15;;;;;;;6.92;75.44;101852.27;1713208;83;26160;-63
2021/03/02 09:19:41;;;;;;;76.92;35.80;;;;;;;6.95;74.94;101858.21;1713182;83;25536;-63
2021/03/02 09:22:14;;;;;;;76.87;35.45;;;;;;;7.04;75.82;101860.25;1712689;83;25817;-65
2021/03/02 09:24:57;;;;;;;78.55;36.13;;;;;;;7.03;74.95;101843.84;1713037;83;26398;-64
2021/03/02 09:27:36;;;;;;;77.03;35.20;;;;;;;6.90;74.21;101850.36;1706104;83;26168;-65
2021/03/02 09:30:08;;;;;;;84.52;37.28;;;;;;;6.83;73.67;101859.67;1712693;83;26443;-64
2021/03/02 09:32:35;;;;;;;80.85;34.35;;;;;;;6.61;73.12;101845.61;1712896;83;25678;-64
2021/03/02 09:35:10;;;;;;;79.92;36.70;;;;;;;6.46;72.94;101844.02;1713132;83;25780;-65
2021/03/02 09:37:39;;;;;;;73.85;33.73;;;;;;;6.31;73.35;101841.33;1713088;83;25685;-65
2021/03/02 09:40:13;;;;;;;79.32;35.48;;;;;;;6.24;73.92;101847.94;1713275;83;25746;-66
2021/03/02 09:42:45;;;;;;;82.25;35.23;;;;;;;6.20;74.14;101842.73;1713133;83;26956;-65
2021/03/02 09:45:16;;;;;;;80.92;35.20;;;;;;;6.26;74.84;101847.16;1710998;83;26326;-67
2021/03/02 09:47:47;;;;;;;80.83;36.85;;;;;;;6.39;74.78;101839.33;1713029;83;26449;-64
2021/03/02 09:50:16;;;;;;;73.83;33.75;;;;;;;6.55;75.67;101845.23;1713137;83;25655;-66
2021/03/02 09:52:50;;;;;;;78.37;34.85;;;;;;;6.70;74.28;101835.26;1713319;83;32910;-65
2021/03/02 09:55:22;;;;;;;75.10;36.00;;;;;;;6.97;75.63;101840.78;1708005;83;25950;-67
2021/03/02 09:58:01;;;;;;;73.55;33.38;;;;;;;7.66;75.42;101843.05;1711775;83;26137;-66
2021/03/02 10:00:32;;;;;;;71.45;30.85;;;;;;;8.00;73.42;101842.05;1713167;83;26245;-66
2021/03/02 10:03:07;;;;;;;68.90;31.97;;;;;;;8.32;73.30;101842.64;1713085;83;25726;-64
2021/03/02 10:05:53;;;;;;;72.90;34.27;;;;;;;8.70;72.75;101843.52;1713234;83;25702;-65
2021/03/02 10:08:42;;;;;;;69.80;32.23;;;;;;;8.93;72.88;101835.06;1712841;83;26720;-65
2021/03/02 10:11:17;;;;;;;70.40;34.27;;;;;;;9.33;71.64;101840.43;1712656;83;25732;-64
2021/03/02 10:13:53;;;;;;;69.85;33.75;;;;;;;9.33;68.37;101836.38;1713031;83;25685;-65
2021/03/02 10:16:35;;;;;;;75.72;35.05;;;;;;;9.48;70.42;101838.86;1712888;82;25642;-64
2021/03/02 10:19:21;;;;;;;69.82;33.65;;;;;;;9.88;70.07;101831.99;1713155;83;25697;-64
2021/03/02 10:21:56;;;;;;;71.67;35.63;;;;;;;10.28;70.67;101834.48;1712755;83;26675;-65
2021/03/02 10:24:35;;;;;;;67.78;34.05;;;;;;;10.74;69.45;101841.82;1712814;83;25726;-66
2021/03/02 10:27:19;;;;;;;66.85;33.88;;;;;;;11.06;68.73;101841.50;1713153;83;25741;-66
2021/03/02 10:29:48;;;;;;;68.75;32.50;;;;;;;11.34;66.73;101840.08;1712958;83;25740;-64
2021/03/02 10:32:16;;;;;;;73.05;33.10;;;;;;;11.38;65.92;101833.02;1713273;83;25743;-63
2021/03/02 10:34:44;;;;;;;70.60;33.05;;;;;;;11.53;67.02;101829.44;1713074;83;26750;-63
2021/03/02 10:37:12;;;;;;;67.22;34.13;;;;;;;11.71;65.63;101818.53;1713024;83;25704;-63
2021/03/02 10:39:41;;;;;;;65.35;32.17;;;;;;;12.04;66.42;101819.45;1713060;83;25714;-61
2021/03/02 10:42:11;;;;;;;67.65;33.25;;;;;;;12.49;66.07;101818.27;1713380;83;26078;-62
2021/03/02 10:44:38;;;;;;;64.70;33.18;;;;;;;12.81;65.27;101807.39;1713161;83;25876;-61
2021/03/02 10:47:06;;;;;;;66.53;33.28;;;;;;;13.07;63.74;101798.97;1712588;83;25876;-61
2021/03/02 10:49:33;;;;;;;68.45;34.08;;;;;;;13.36;62.66;101803.00;1712974;83;25920;-62
2021/03/02 10:52:00;;;;;;;65.62;34.27;;;;;;;13.23;55.80;101789.56;1713009;83;25710;-62
2021/03/02 10:54:29;;;;;;;63.98;34.03;;;;;;;12.74;57.58;101791.20;1713052;83;25713;-62
2021/03/02 10:56:58;;;;;;;64.97;32.17;;;;;;;12.52;57.95;101793.28;1713191;83;25817;-61
2021/03/02 10:59:25;;;;;;;62.83;34.25;;;;;;;12.59;60.90;101773.95;1712995;83;26250;-62
2021/03/02 11:01:53;;;;;;;62.30;33.80;;;;;;;12.83;60.31;101775.89;1713024;83;25674;-62
2021/03/02 11:04:20;;;;;;;64.82;34.00;;;;;;;12.75;59.26;101765.09;1713248;83;25768;-60
2021/03/02 11:06:47;;;;;;;60.83;32.95;;;;;;;12.84;58.29;101766.09;1713068;83;25720;-60
2021/03/02 11:09:14;;;;;;;61.25;32.55;;;;;;;13.23;58.96;101764.30;1713115;83;25722;-61
2021/03/02 11:11:41;;;;;;;59.48;31.55;;;;;;;13.98;59.81;101764.11;1712882;83;25990;-61
2021/03/02 11:14:08;;;;;;;61.15;33.20;;;;;;;14.89;55.74;101768.27;1713005;83;26282;-61
2021/03/02 11:16:35;;;;;;;61.63;33.00;;;;;;;15.47;56.99;101769.53;1713268;82;25566;-61
2021/03/02 11:19:02;;;;;;;58.00;32.38;;;;;;;15.70;54.08;101774.48;1712946;83;25788;-62
2021/03/02 11:21:29;;;;;;;67.25;33.60;;;;;;;15.90;54.00;101779.23;1712964;83;25700;-61
2021/03/02 11:23:55;;;;;;;60.05;32.25;;;;;;;16.27;50.11;101775.33;1713166;83;25823;-62
2021/03/02 11:26:22;;;;;;;59.03;32.20;;;;;;;16.59;53.55;101780.27;1713058;83;25721;-63
2021/03/02 11:28:49;;;;;;;58.15;33.00;;;;;;;17.07;52.37;101780.09;1713077;83;26396;-61
2021/03/02 11:31:16;;;;;;;54.65;31.25;;;;;;;17.33;52.35;101770.58;1712944;83;25598;-61
2021/03/02 11:33:43;;;;;;;60.78;33.35;;;;;;;17.64;50.07;101784.70;1713131;83;25674;-60
2021/03/02 11:36:10;;;;;;;57.85;31.85;;;;;;;17.52;50.11;101771.64;1713193;83;25712;-62
2021/03/02 11:38:37;;;;;;;56.45;33.63;;;;;;;17.69;50.29;101769.48;1713074;83;25765;-62